createdAt,value
2022-12-14T11:39:49.805Z,13.27
2022-12-14T11:42:18.969Z,14.50
2022-12-14T11:44:47.356Z,13.93
2022-12-14T11:47:15.580Z,13.63
2022-12-14T11:49:42.748Z,14.98
2022-12-14T11:52:13.136Z,14.98
2022-12-14T11:54:49.689Z,14.55
2022-12-14T11:57:17.507Z,14.30
2022-12-14T11:59:55.913Z,15.32
2022-12-14T12:02:27.049Z,15.18
2022-12-14T12:04:59.999Z,14.05
2022-12-14T12:07:30.241Z,14.10
2022-12-14T12:10:01.415Z,15.30
2022-12-14T12:12:28.802Z,14.27
2022-12-14T12:14:56.831Z,14.90
2022-12-14T12:17:38.171Z,14.13
2022-12-14T12:20:10.100Z,14.30
2022-12-14T12:22:38.229Z,15.23
2022-12-14T12:25:25.867Z,16.20
2022-12-14T12:27:59.947Z,15.70
2022-12-14T12:30:29.274Z,15.60
2022-12-14T12:32:58.460Z,15.23
2022-12-14T12:35:47.480Z,14.85
2022-12-14T12:38:20.954Z,15.55
2022-12-14T12:40:55.712Z,15.68
2022-12-14T12:43:37.741Z,16.80
2022-12-14T12:46:28.203Z,15.60
2022-12-14T12:49:00.680Z,15.32
2022-12-14T12:51:30.088Z,15.48
2022-12-14T12:53:59.862Z,15.20
2022-12-14T12:56:40.611Z,15.77
2022-12-14T12:59:08.136Z,15.98
2022-12-14T13:01:38.530Z,15.55
2022-12-14T13:04:13.579Z,15.50
2022-12-14T13:06:43.688Z,16.48
2022-12-14T13:09:17.232Z,16.27
2022-12-14T13:11:44.748Z,16.75
2022-12-14T13:14:38.195Z,16.33
2022-12-14T13:17:07.184Z,16.52
2022-12-14T13:19:50.792Z,15.63
2022-12-14T13:22:21.895Z,16.50
2022-12-14T13:24:57.000Z,15.70
2022-12-14T13:27:32.449Z,15.10
2022-12-14T13:30:02.693Z,15.15
2022-12-14T13:32:38.720Z,14.98
2022-12-14T13:35:05.937Z,15.45
2022-12-14T13:37:54.185Z,14.68
2022-12-14T13:40:36.303Z,15.93
2022-12-14T13:43:15.235Z,15.40
2022-12-14T13:45:44.713Z,15.65
2022-12-14T13:48:24.351Z,16.02
2022-12-14T13:51:02.294Z,15.13
2022-12-14T13:53:38.238Z,14.70
2022-12-14T13:56:05.735Z,15.32
2022-12-14T13:58:42.908Z,16.05
2022-12-14T14:01:14.530Z,16.00
2022-12-14T14:03:43.068Z,17.15
2022-12-14T14:06:13.629Z,14.68
2022-12-14T14:08:42.741Z,15.55
2022-12-14T14:11:36.317Z,15.43
2022-12-14T14:14:04.796Z,14.57
2022-12-14T14:17:04.559Z,15.45
2022-12-14T14:19:36.133Z,15.80
2022-12-14T14:22:25.750Z,16.30
2022-12-14T14:24:56.676Z,15.07
2022-12-14T14:27:35.259Z,14.88
2022-12-14T14:30:02.475Z,16.50
2022-12-14T14:32:42.972Z,15.45
2022-12-14T14:35:35.889Z,15.90
2022-12-14T14:38:10.805Z,16.75
2022-12-14T14:41:14.065Z,18.50
2022-12-14T14:43:30.884Z,17.67
2022-12-14T14:46:06.159Z,18.00
2022-12-14T14:48:39.997Z,17.65
2022-12-14T14:51:07.196Z,17.70
2022-12-14T14:53:38.298Z,18.27
2022-12-14T14:56:24.350Z,18.38
2022-12-14T14:58:51.594Z,18.58
2022-12-14T15:01:25.019Z,18.85
2022-12-14T15:03:52.467Z,18.13
2022-12-14T15:06:22.780Z,19.15
2022-12-14T15:09:08.623Z,19.88
2022-12-14T15:11:56.028Z,19.42
2022-12-14T15:14:33.279Z,19.23
2022-12-14T15:17:11.907Z,19.98
2022-12-14T15:19:39.261Z,21.75
2022-12-14T15:22:07.839Z,20.17
2022-12-14T15:24:39.120Z,21.45
2022-12-14T15:27:52.389Z,22.38
2022-12-14T15:30:19.698Z,20.83
2022-12-14T15:32:52.226Z,21.80
2022-12-14T15:35:22.359Z,22.27
2022-12-14T15:37:59.704Z,21.55
2022-12-14T15:40:30.272Z,22.70
2022-12-14T15:42:58.697Z,22.73
2022-12-14T15:45:27.726Z,21.65
2022-12-14T15:47:54.987Z,21.58
2022-12-14T15:50:27.129Z,20.88
2022-12-14T15:53:00.163Z,23.30
2022-12-14T15:55:35.104Z,23.05
2022-12-14T15:58:17.337Z,20.80
2022-12-14T16:00:46.832Z,21.67
2022-12-14T16:03:20.136Z,22.80
2022-12-14T16:05:47.489Z,20.33
2022-12-14T16:08:15.066Z,20.13
2022-12-14T16:10:42.580Z,21.08
2022-12-14T16:13:21.818Z,21.08
2022-12-14T16:15:49.443Z,20.75
2022-12-14T16:18:18.542Z,21.45
2022-12-14T16:20:47.047Z,21.13
2022-12-14T16:23:15.279Z,21.85
2022-12-14T16:25:53.498Z,21.75
2022-12-14T16:28:21.224Z,20.27
2022-12-14T16:31:17.773Z,22.73
2022-12-14T16:33:45.100Z,21.83
2022-12-14T16:36:25.469Z,20.98
2022-12-14T16:39:01.240Z,22.15
2022-12-14T16:41:38.149Z,23.05
2022-12-14T16:44:06.404Z,24.13
2022-12-14T16:46:33.618Z,21.70
2022-12-14T16:49:19.847Z,23.70
2022-12-14T16:52:14.507Z,24.25
2022-12-14T16:54:35.006Z,23.25
2022-12-14T16:57:04.406Z,22.38
2022-12-14T16:59:42.053Z,21.92
2022-12-14T17:02:33.525Z,24.38
2022-12-14T17:05:02.358Z,21.85
2022-12-14T17:07:30.808Z,21.80
2022-12-14T17:09:58.097Z,22.35
2022-12-14T17:12:26.164Z,22.75
2022-12-14T17:14:53.920Z,22.73
2022-12-14T17:17:49.310Z,22.33
2022-12-14T17:20:27.286Z,22.15
2022-12-14T17:22:56.393Z,21.73
2022-12-14T17:25:23.543Z,20.80
2022-12-14T17:27:50.693Z,21.40
2022-12-14T17:30:20.011Z,21.92
2022-12-14T17:32:47.253Z,20.20
2022-12-14T17:35:18.556Z,22.13
2022-12-14T17:37:45.755Z,21.00
2022-12-14T17:40:13.115Z,19.13
2022-12-14T17:42:41.852Z,18.48
2022-12-14T17:45:18.279Z,18.90
2022-12-14T17:47:45.442Z,18.13
2022-12-14T17:50:16.942Z,17.55
2022-12-14T17:52:44.407Z,17.23
2022-12-14T17:55:17.317Z,17.08
2022-12-14T17:57:44.490Z,16.60
2022-12-14T18:00:37.622Z,16.58
2022-12-14T18:03:05.575Z,16.55
2022-12-14T18:05:33.347Z,16.92
2022-12-14T18:08:00.545Z,17.73
2022-12-14T18:10:27.773Z,15.50
2022-12-14T18:12:55.575Z,16.83
2022-12-14T18:15:25.231Z,16.23
2022-12-14T18:17:52.440Z,15.57
2022-12-14T18:20:21.554Z,17.27
2022-12-14T18:22:50.015Z,16.75
2022-12-14T18:25:30.130Z,17.77
2022-12-14T18:27:57.361Z,18.85
2022-12-14T18:30:24.499Z,16.92
2022-12-14T18:32:51.688Z,18.35
2022-12-14T18:35:19.906Z,17.40
2022-12-14T18:37:49.469Z,15.95
2022-12-14T18:40:18.112Z,17.60
2022-12-14T18:42:45.948Z,19.60
2022-12-14T18:45:17.507Z,18.33
2022-12-14T18:47:45.031Z,17.73
2022-12-14T18:50:13.301Z,18.45
2022-12-14T18:52:40.491Z,18.30
2022-12-14T18:55:14.972Z,19.30
2022-12-14T18:57:43.169Z,19.95
2022-12-14T19:00:12.962Z,18.48
2022-12-14T19:02:41.205Z,17.60
2022-12-14T19:05:08.851Z,17.50
2022-12-14T19:07:35.973Z,17.63
2022-12-14T19:10:03.168Z,16.98
2022-12-14T19:12:30.322Z,17.55
2022-12-14T19:14:57.514Z,16.08
2022-12-14T19:17:24.683Z,16.27
2022-12-14T19:19:52.141Z,16.05
2022-12-14T19:22:19.468Z,13.90
2022-12-14T19:24:52.110Z,15.00
2022-12-14T19:27:43.955Z,14.68
2022-12-14T19:30:07.814Z,13.82
2022-12-14T19:32:35.055Z,14.48
2022-12-14T19:35:02.639Z,13.57
2022-12-14T19:37:29.775Z,13.98
2022-12-14T19:39:59.420Z,13.48
2022-12-14T19:42:26.650Z,12.93
2022-12-14T19:44:53.917Z,13.57
2022-12-14T19:47:21.109Z,12.82
2022-12-14T19:49:48.278Z,14.48
2022-12-14T19:52:15.413Z,13.38
2022-12-14T19:54:42.563Z,13.57
2022-12-14T19:57:09.711Z,13.68
2022-12-14T19:59:36.849Z,13.02
2022-12-14T20:02:04.219Z,13.23
2022-12-14T20:04:31.528Z,12.90
2022-12-14T20:06:58.709Z,14.70
2022-12-14T20:09:25.926Z,14.48
2022-12-14T20:11:53.056Z,13.57
2022-12-14T20:14:20.310Z,11.75
2022-12-14T20:16:47.628Z,11.85
2022-12-14T20:19:14.896Z,10.70
2022-12-14T20:21:42.296Z,11.63
2022-12-14T20:24:10.691Z,10.52
2022-12-14T20:26:38.302Z,10.88
2022-12-14T20:29:06.049Z,11.40
2022-12-14T20:31:33.834Z,11.23
2022-12-14T20:34:02.007Z,11.13
2022-12-14T20:36:29.954Z,10.30
2022-12-14T20:38:58.140Z,9.30
2022-12-14T20:41:25.818Z,8.95
2022-12-14T20:43:53.175Z,9.38
2022-12-14T20:46:29.725Z,9.45
2022-12-14T20:48:57.666Z,9.52
2022-12-14T20:51:24.999Z,9.07
2022-12-14T20:53:52.198Z,8.77
2022-12-14T20:56:20.778Z,9.15
2022-12-14T20:58:48.443Z,9.27
2022-12-14T21:01:16.676Z,9.27
2022-12-14T21:03:46.898Z,9.43
2022-12-14T21:06:18.891Z,8.50
2022-12-14T21:09:01.811Z,9.27
2022-12-14T21:11:48.383Z,9.30
2022-12-14T21:14:15.678Z,8.73
2022-12-14T21:16:43.135Z,8.77
2022-12-14T21:19:12.180Z,9.50
2022-12-14T21:21:39.882Z,8.38
2022-12-14T21:24:08.796Z,9.48
2022-12-14T21:26:36.861Z,9.25
2022-12-14T21:29:04.801Z,9.52
2022-12-14T21:31:32.014Z,9.45
2022-12-14T21:33:59.268Z,9.95
2022-12-14T21:36:26.392Z,9.27
2022-12-14T21:38:54.388Z,8.95
2022-12-14T21:41:40.172Z,9.18
2022-12-14T21:44:07.664Z,9.32
2022-12-14T21:46:35.127Z,9.48
2022-12-14T21:49:02.392Z,9.23
2022-12-14T21:51:29.667Z,9.55
2022-12-14T21:54:00.219Z,9.55
2022-12-14T21:56:47.494Z,10.10
2022-12-14T21:59:15.789Z,8.90
2022-12-14T22:01:43.365Z,8.95
2022-12-14T22:04:10.887Z,9.85
2022-12-14T22:06:38.061Z,10.40
2022-12-14T22:09:05.446Z,9.65
2022-12-14T22:11:32.815Z,10.23
2022-12-14T22:14:02.333Z,8.95
2022-12-14T22:16:30.880Z,11.55
2022-12-14T22:19:01.684Z,9.90
2022-12-14T22:21:29.372Z,10.30
2022-12-14T22:23:56.560Z,10.88
2022-12-14T22:26:24.464Z,10.45
2022-12-14T22:28:54.836Z,9.77
2022-12-14T22:31:22.032Z,10.75
2022-12-14T22:33:50.186Z,11.27
2022-12-14T22:36:20.533Z,9.80
2022-12-14T22:38:47.716Z,10.82
2022-12-14T22:41:15.771Z,11.45
2022-12-14T22:43:44.467Z,10.00
2022-12-14T22:46:12.975Z,11.15
2022-12-14T22:48:40.589Z,11.85
2022-12-14T22:51:12.153Z,11.32
2022-12-14T22:53:39.653Z,11.90
2022-12-14T22:56:16.107Z,12.02
2022-12-14T22:58:44.942Z,11.88
2022-12-14T23:01:19.323Z,12.48
2022-12-14T23:03:47.297Z,12.27
2022-12-14T23:06:17.455Z,11.63
2022-12-14T23:09:04.211Z,11.45
2022-12-14T23:11:50.418Z,12.10
2022-12-14T23:14:36.505Z,12.18
2022-12-14T23:17:22.657Z,11.88
2022-12-14T23:20:08.755Z,12.50
2022-12-14T23:22:54.722Z,12.23
2022-12-14T23:25:40.734Z,12.65
2022-12-14T23:28:26.741Z,12.30
2022-12-14T23:31:12.749Z,12.45
2022-12-14T23:33:58.660Z,12.57
2022-12-14T23:36:44.551Z,11.90
2022-12-14T23:39:30.452Z,13.13
2022-12-14T23:42:16.487Z,12.38
2022-12-14T23:45:02.358Z,13.90
2022-12-14T23:47:49.258Z,13.77
2022-12-14T23:50:35.775Z,15.45
2022-12-14T23:53:28.212Z,16.25
2022-12-14T23:56:14.466Z,16.58
2022-12-14T23:59:00.486Z,17.88
